createdAt,value
2018-02-24T00:00:22.728Z,4.23
2018-02-24T00:02:51.048Z,4.50
2018-02-24T00:05:19.330Z,6.17
2018-02-24T00:07:47.625Z,4.03
2018-02-24T00:10:15.910Z,4.57
2018-02-24T00:12:44.212Z,6.33
2018-02-24T00:15:12.511Z,4.30
2018-02-24T00:17:40.803Z,5.43
2018-02-24T00:20:09.135Z,6.03
2018-02-24T00:22:45.243Z,3.30
2018-02-24T00:25:13.554Z,4.03
2018-02-24T00:27:41.847Z,4.33
2018-02-24T00:30:10.124Z,3.80
2018-02-24T00:32:38.429Z,3.57
2018-02-24T00:35:06.712Z,3.67
2018-02-24T00:37:35.002Z,3.83
2018-02-24T00:40:03.309Z,3.60
2018-02-24T00:42:32.189Z,3.70
2018-02-24T00:45:00.475Z,3.40
2018-02-24T00:47:28.771Z,3.77
2018-02-24T00:49:56.905Z,3.90
2018-02-24T00:52:25.212Z,4.27
2018-02-24T00:54:53.503Z,4.37
2018-02-24T00:57:21.594Z,4.63
2018-02-24T00:59:49.870Z,3.67
2018-02-24T01:02:17.999Z,4.53
2018-02-24T01:04:46.293Z,4.23
2018-02-24T01:07:15.390Z,4.10
2018-02-24T01:09:43.670Z,3.70
2018-02-24T01:12:11.701Z,3.20
2018-02-24T01:14:39.989Z,3.10
2018-02-24T01:17:08.285Z,4.00
2018-02-24T01:19:36.565Z,4.03
2018-02-24T01:22:04.885Z,3.47
2018-02-24T01:24:33.188Z,4.23
2018-02-24T01:27:01.535Z,3.90
2018-02-24T01:29:29.837Z,3.47
2018-02-24T01:31:58.141Z,4.00
2018-02-24T01:34:26.430Z,3.50
2018-02-24T01:36:54.738Z,3.70
2018-02-24T01:39:23.041Z,3.47
2018-02-24T01:41:51.346Z,3.80
2018-02-24T01:44:19.653Z,3.97
2018-02-24T01:46:47.966Z,6.00
2018-02-24T01:49:16.271Z,3.23
2018-02-24T01:51:44.589Z,5.03
2018-02-24T01:54:12.875Z,3.37
2018-02-24T01:56:41.187Z,3.60
2018-02-24T01:59:09.474Z,3.57
2018-02-24T02:01:37.771Z,5.80
2018-02-24T02:04:06.047Z,3.47
2018-02-24T02:06:34.406Z,3.50
2018-02-24T02:09:02.817Z,3.63
2018-02-24T02:11:31.099Z,3.37
2018-02-24T02:13:59.379Z,4.43
2018-02-24T02:16:27.663Z,3.20
2018-02-24T02:18:55.938Z,3.40
2018-02-24T02:21:24.218Z,3.57
2018-02-24T02:23:52.517Z,5.37
2018-02-24T02:26:20.790Z,3.77
2018-02-24T02:28:49.087Z,3.27
2018-02-24T02:31:17.399Z,3.40
2018-02-24T02:33:45.872Z,4.07
2018-02-24T02:36:14.194Z,3.30
2018-02-24T02:38:42.475Z,3.33
2018-02-24T02:41:10.793Z,4.87
2018-02-24T02:43:39.101Z,3.73
2018-02-24T02:46:07.461Z,4.43
2018-02-24T02:48:35.741Z,2.93
2018-02-24T02:51:04.046Z,3.27
2018-02-24T02:53:32.327Z,3.20
2018-02-24T02:56:00.619Z,3.40
2018-02-24T02:58:28.919Z,4.27
2018-02-24T03:00:57.217Z,3.10
2018-02-24T03:03:25.512Z,3.70
2018-02-24T03:05:53.842Z,3.80
2018-02-24T03:08:22.149Z,3.40
2018-02-24T03:10:50.646Z,3.47
2018-02-24T03:13:18.926Z,3.53
2018-02-24T03:15:47.210Z,3.50
2018-02-24T03:18:15.489Z,3.30
2018-02-24T03:20:43.794Z,3.40
2018-02-24T03:23:12.090Z,4.00
2018-02-24T03:25:40.377Z,4.50
2018-02-24T03:28:08.670Z,3.40
2018-02-24T03:30:36.942Z,3.40
2018-02-24T03:33:05.221Z,3.50
2018-02-24T03:35:33.551Z,3.30
2018-02-24T03:38:01.838Z,5.60
2018-02-24T03:40:30.109Z,3.40
2018-02-24T03:42:58.227Z,3.50
2018-02-24T03:45:26.338Z,4.33
2018-02-24T03:47:54.429Z,3.40
2018-02-24T03:50:22.522Z,3.20
2018-02-24T03:52:50.626Z,3.20
2018-02-24T03:55:18.741Z,2.80
2018-02-24T03:57:47.079Z,3.27
2018-02-24T04:00:15.359Z,4.07
2018-02-24T04:02:43.637Z,3.23
2018-02-24T04:05:11.755Z,3.17
2018-02-24T04:07:40.056Z,3.73
2018-02-24T04:10:08.348Z,3.13
2018-02-24T04:12:36.646Z,3.20
2018-02-24T04:15:04.946Z,3.00
2018-02-24T04:17:33.228Z,3.20
2018-02-24T04:20:01.553Z,3.20
2018-02-24T04:22:29.850Z,3.43
2018-02-24T04:24:58.167Z,2.80
2018-02-24T04:27:26.459Z,3.67
2018-02-24T04:29:54.734Z,3.50
2018-02-24T04:32:23.023Z,3.37
2018-02-24T04:34:51.335Z,3.43
2018-02-24T04:37:19.668Z,5.67
2018-02-24T04:39:47.950Z,4.00
2018-02-24T04:42:16.226Z,3.23
2018-02-24T04:44:44.503Z,3.13
2018-02-24T04:47:12.775Z,4.77
2018-02-24T04:49:41.058Z,3.10
2018-02-24T04:52:09.354Z,3.47
2018-02-24T04:54:37.656Z,4.10
2018-02-24T04:57:05.754Z,3.20
2018-02-24T04:59:34.043Z,4.47
2018-02-24T05:02:02.328Z,3.03
2018-02-24T05:04:30.609Z,4.80
2018-02-24T05:06:59.066Z,3.87
2018-02-24T05:09:27.350Z,3.33
2018-02-24T05:11:55.630Z,2.90
2018-02-24T05:14:23.906Z,4.43
2018-02-24T05:16:52.183Z,6.57
2018-02-24T05:19:20.494Z,3.23
2018-02-24T05:21:48.774Z,4.20
2018-02-24T05:24:17.051Z,4.30
2018-02-24T05:26:45.328Z,4.10
2018-02-24T05:29:13.616Z,3.73
2018-02-24T05:31:41.967Z,4.53
2018-02-24T05:34:10.489Z,5.87
2018-02-24T05:36:38.806Z,4.63
2018-02-24T05:39:07.090Z,4.40
2018-02-24T05:41:35.369Z,4.50
2018-02-24T05:44:03.683Z,5.00
2018-02-24T05:46:32.061Z,4.83
2018-02-24T05:49:00.372Z,3.97
2018-02-24T05:51:28.686Z,3.97
2018-02-24T05:53:56.985Z,4.40
2018-02-24T05:56:25.318Z,4.37
2018-02-24T05:58:53.598Z,4.73
2018-02-24T06:01:21.874Z,7.77
2018-02-24T06:03:50.166Z,6.10
2018-02-24T06:06:18.438Z,6.30
2018-02-24T06:08:46.760Z,7.13
2018-02-24T06:11:15.050Z,7.13
2018-02-24T06:13:43.553Z,5.90
2018-02-24T06:16:11.842Z,6.17
2018-02-24T06:18:40.138Z,6.90
2018-02-24T06:21:08.445Z,6.97
2018-02-24T06:23:36.738Z,6.17
2018-02-24T06:26:04.843Z,6.37
2018-02-24T06:28:33.151Z,6.63
2018-02-24T06:31:01.250Z,7.00
2018-02-24T06:33:29.526Z,7.23
2018-02-24T06:35:57.815Z,6.13
2018-02-24T06:38:26.124Z,7.43
2018-02-24T06:40:54.236Z,6.30
2018-02-24T06:43:22.552Z,6.90
2018-02-24T06:45:50.879Z,9.47
2018-02-24T06:48:19.174Z,9.60
2018-02-24T06:50:47.514Z,19.80
2018-02-24T06:53:15.958Z,8.43
2018-02-24T06:55:45.756Z,9.23
2018-02-24T06:58:14.901Z,9.80
2018-02-24T07:00:43.343Z,13.67
2018-02-24T07:03:11.668Z,13.07
2018-02-24T07:05:39.955Z,7.13
2018-02-24T07:08:08.243Z,8.90
2018-02-24T07:10:36.527Z,5.73
2018-02-24T07:13:04.585Z,5.97
2018-02-24T07:15:33.006Z,8.63
2018-02-24T07:18:01.316Z,6.87
2018-02-24T07:20:29.626Z,8.70
2018-02-24T07:22:57.911Z,9.57
2018-02-24T07:25:26.236Z,9.33
2018-02-24T07:27:54.370Z,6.73
2018-02-24T07:30:22.465Z,7.97
2018-02-24T07:32:50.812Z,10.50
2018-02-24T07:35:19.100Z,6.53
2018-02-24T07:37:47.405Z,6.63
2018-02-24T07:40:15.690Z,15.37
2018-02-24T07:42:44.000Z,26.97
2018-02-24T07:45:12.309Z,26.70
2018-02-24T07:47:40.619Z,23.33
2018-02-24T07:50:08.943Z,22.93
2018-02-24T07:52:37.237Z,18.87
2018-02-24T07:57:48.281Z,21.47
2018-02-24T08:00:16.570Z,17.70
2018-02-24T08:02:44.851Z,22.37
2018-02-24T08:05:13.183Z,13.93
2018-02-24T08:07:41.469Z,16.10
2018-02-24T08:10:09.760Z,20.97
2018-02-24T08:12:38.110Z,15.27
2018-02-24T08:15:06.403Z,13.40
2018-02-24T08:17:34.747Z,17.67
2018-02-24T08:20:03.170Z,13.20
2018-02-24T08:22:31.450Z,13.03
2018-02-24T08:24:59.785Z,15.17
2018-02-24T08:27:28.096Z,11.43
2018-02-24T08:29:56.407Z,15.53
2018-02-24T08:32:24.704Z,11.27
2018-02-24T08:34:53.017Z,16.60
2018-02-24T08:37:21.364Z,14.73
2018-02-24T08:39:49.660Z,14.20
2018-02-24T08:42:17.949Z,13.77
2018-02-24T08:44:46.259Z,12.93
2018-02-24T08:47:14.620Z,10.97
2018-02-24T08:49:42.901Z,17.33
2018-02-24T08:52:11.226Z,12.17
2018-02-24T08:54:39.534Z,11.83
2018-02-24T08:57:07.986Z,10.30
2018-02-24T08:59:36.293Z,9.53
2018-02-24T09:02:04.606Z,8.03
2018-02-24T09:04:32.898Z,9.33
2018-02-24T09:07:01.197Z,13.30
2018-02-24T09:09:29.482Z,13.43
2018-02-24T09:11:57.780Z,11.13
2018-02-24T09:14:26.070Z,11.07
2018-02-24T09:16:54.186Z,9.87
2018-02-24T09:19:22.473Z,8.27
2018-02-24T09:21:50.799Z,8.80
2018-02-24T09:24:19.174Z,8.00
2018-02-24T09:26:47.486Z,10.23
2018-02-24T09:29:15.896Z,7.10
2018-02-24T09:31:44.484Z,8.50
2018-02-24T09:34:12.807Z,8.13
2018-02-24T09:36:41.110Z,8.13
2018-02-24T09:39:09.219Z,6.70
2018-02-24T09:41:37.510Z,8.23
2018-02-24T09:44:05.803Z,9.10
2018-02-24T09:46:34.093Z,6.83
2018-02-24T09:49:02.399Z,7.57
2018-02-24T09:51:30.742Z,5.87
2018-02-24T09:53:59.034Z,6.93
2018-02-24T09:56:27.320Z,8.00
2018-02-24T09:58:55.626Z,6.83
2018-02-24T10:01:23.930Z,6.73
2018-02-24T10:03:52.233Z,5.63
2018-02-24T10:06:20.541Z,5.40
2018-02-24T10:08:48.830Z,6.17
2018-02-24T10:11:17.173Z,7.77
2018-02-24T10:13:45.615Z,6.30
2018-02-24T10:16:14.739Z,6.03
2018-02-24T10:18:43.047Z,5.53
2018-02-24T10:21:11.343Z,5.53
2018-02-24T10:23:39.642Z,5.67
2018-02-24T10:26:07.945Z,5.70
2018-02-24T10:28:36.250Z,6.03
2018-02-24T10:31:04.542Z,5.17
2018-02-24T10:33:32.848Z,5.67
2018-02-24T10:36:01.155Z,6.03
2018-02-24T10:38:29.448Z,5.73
2018-02-24T10:40:57.743Z,4.70
2018-02-24T10:43:26.018Z,5.40
2018-02-24T10:45:54.306Z,5.30
2018-02-24T10:48:22.615Z,8.00
2018-02-24T10:50:50.938Z,7.10
2018-02-24T10:53:19.233Z,6.00
2018-02-24T10:55:47.537Z,5.10
2018-02-24T10:58:15.842Z,5.53
2018-02-24T11:00:44.226Z,6.73
2018-02-24T11:03:12.526Z,6.17
2018-02-24T11:05:41.774Z,4.80
2018-02-24T11:08:10.075Z,7.13
2018-02-24T11:10:38.371Z,6.57
2018-02-24T11:13:06.686Z,5.00
2018-02-24T11:15:34.963Z,6.77
2018-02-24T11:18:03.350Z,4.93
2018-02-24T11:20:32.358Z,5.30
2018-02-24T11:23:00.723Z,5.80
2018-02-24T11:25:29.168Z,5.73
2018-02-24T11:27:57.465Z,5.90
2018-02-24T11:30:25.764Z,5.30
2018-02-24T11:32:54.037Z,7.00
2018-02-24T11:35:22.347Z,7.63
2018-02-24T11:37:50.693Z,5.07
2018-02-24T11:40:18.982Z,5.90
2018-02-24T11:42:47.093Z,5.13
2018-02-24T11:45:15.374Z,5.60
2018-02-24T11:47:43.695Z,5.37
2018-02-24T11:50:12.005Z,6.00
2018-02-24T11:52:40.497Z,6.07
2018-02-24T11:55:08.782Z,5.80
2018-02-24T11:57:37.086Z,5.10
2018-02-24T12:00:05.412Z,5.40
2018-02-24T12:02:33.718Z,6.70
2018-02-24T12:05:02.002Z,5.53
2018-02-24T12:07:30.321Z,6.20
2018-02-24T12:09:58.418Z,5.47
2018-02-24T12:12:26.696Z,5.30
2018-02-24T12:14:54.967Z,5.60
2018-02-24T12:17:23.326Z,5.80
2018-02-24T12:19:51.698Z,5.53
2018-02-24T12:22:20.056Z,7.00
2018-02-24T12:24:48.346Z,6.53
2018-02-24T12:27:16.630Z,5.73
2018-02-24T12:29:44.910Z,7.77
2018-02-24T12:32:13.214Z,5.63
2018-02-24T12:34:41.498Z,5.83
2018-02-24T12:37:09.800Z,5.80
2018-02-24T12:39:38.110Z,5.83
2018-02-24T12:42:06.406Z,6.23
2018-02-24T12:44:34.524Z,5.53
2018-02-24T12:47:02.618Z,5.90
2018-02-24T12:49:30.750Z,6.00
2018-02-24T12:51:59.066Z,5.97
2018-02-24T12:54:27.362Z,6.00
2018-02-24T12:56:55.637Z,5.90
2018-02-24T12:59:23.940Z,6.60
2018-02-24T13:01:52.247Z,5.77
2018-02-24T13:04:20.555Z,7.77
2018-02-24T13:06:48.882Z,5.60
2018-02-24T13:09:17.163Z,5.70
2018-02-24T13:11:45.457Z,6.10
2018-02-24T13:14:13.749Z,7.23
2018-02-24T13:16:42.039Z,7.20
2018-02-24T13:19:10.331Z,6.27
2018-02-24T13:21:38.610Z,6.70
2018-02-24T13:24:06.754Z,6.50
2018-02-24T13:26:35.030Z,6.83
2018-02-24T13:29:03.321Z,6.90
2018-02-24T13:31:31.421Z,5.60
2018-02-24T13:33:59.728Z,5.63
2018-02-24T13:36:27.893Z,6.20
2018-02-24T13:38:56.010Z,6.73
2018-02-24T13:41:24.341Z,8.13
2018-02-24T13:43:52.598Z,7.00
2018-02-24T13:46:20.876Z,7.73
2018-02-24T13:48:49.163Z,6.50
2018-02-24T13:51:17.522Z,6.93
2018-02-24T13:53:45.813Z,6.60
2018-02-24T13:56:14.098Z,7.00
2018-02-24T13:58:42.402Z,7.60
2018-02-24T14:01:10.710Z,15.33
2018-02-24T14:03:39.038Z,13.40
2018-02-24T14:06:07.318Z,14.47
2018-02-24T14:08:35.608Z,10.10
2018-02-24T14:11:03.913Z,16.97
2018-02-24T14:13:32.205Z,16.83
2018-02-24T14:16:00.476Z,8.87
2018-02-24T14:18:28.769Z,18.47
2018-02-24T14:20:57.054Z,11.10
2018-02-24T14:23:25.369Z,10.50
2018-02-24T14:25:53.693Z,10.40
2018-02-24T14:28:22.006Z,19.40
2018-02-24T14:30:51.075Z,16.73
2018-02-24T14:33:19.510Z,17.10
2018-02-24T14:35:47.796Z,15.07
2018-02-24T14:38:16.137Z,12.00
2018-02-24T14:40:44.429Z,10.83
2018-02-24T14:43:12.740Z,13.20
2018-02-24T14:45:41.064Z,12.00
2018-02-24T14:48:09.354Z,13.57
2018-02-24T14:50:37.718Z,11.83
2018-02-24T14:53:06.014Z,7.77
2018-02-24T14:55:34.319Z,11.37
2018-02-24T14:58:02.643Z,13.03
2018-02-24T15:00:30.923Z,13.43
2018-02-24T15:02:59.203Z,10.27
2018-02-24T15:05:27.527Z,9.67
2018-02-24T15:07:55.664Z,10.90
2018-02-24T15:10:23.710Z,11.27
2018-02-24T15:12:52.010Z,12.07
2018-02-24T15:15:20.323Z,16.07
2018-02-24T15:17:48.460Z,14.03
2018-02-24T15:20:16.549Z,10.87
2018-02-24T15:22:44.839Z,10.20
2018-02-24T15:25:12.932Z,9.63
2018-02-24T15:27:41.047Z,12.43
2018-02-24T15:30:09.334Z,11.00
2018-02-24T15:32:37.432Z,14.30
2018-02-24T15:35:05.721Z,9.13
2018-02-24T15:37:34.042Z,10.57
2018-02-24T15:40:02.334Z,10.57
2018-02-24T15:42:30.627Z,13.03
2018-02-24T15:44:58.933Z,10.10
2018-02-24T15:47:27.218Z,11.07
2018-02-24T15:49:55.373Z,12.00
2018-02-24T15:55:06.383Z,11.23
2018-02-24T15:57:34.705Z,10.77
2018-02-24T16:00:02.998Z,12.67
2018-02-24T16:02:31.306Z,9.67
2018-02-24T16:04:59.595Z,13.27
2018-02-24T16:07:27.896Z,9.80
2018-02-24T16:09:56.227Z,11.47
2018-02-24T16:12:24.373Z,10.50
2018-02-24T16:14:52.698Z,9.60
2018-02-24T16:17:20.992Z,11.23
2018-02-24T16:19:49.282Z,13.00
2018-02-24T16:22:17.593Z,11.40
2018-02-24T16:24:45.721Z,12.07
2018-02-24T16:27:14.041Z,10.73
2018-02-24T16:29:42.362Z,11.70
2018-02-24T16:32:10.661Z,10.87
2018-02-24T16:34:38.977Z,11.10
2018-02-24T16:37:07.272Z,10.83
2018-02-24T16:39:35.581Z,13.60
2018-02-24T16:42:03.898Z,11.70
2018-02-24T16:44:32.293Z,13.57
2018-02-24T16:47:00.606Z,11.67
2018-02-24T16:49:28.908Z,10.83
2018-02-24T16:51:57.255Z,11.73
2018-02-24T16:54:25.566Z,11.37
2018-02-24T16:56:54.539Z,12.47
2018-02-24T16:59:22.844Z,10.37
2018-02-24T17:01:51.148Z,11.63
2018-02-24T17:04:19.445Z,11.40
2018-02-24T17:06:47.761Z,11.83
2018-02-24T17:09:16.973Z,13.43
2018-02-24T17:11:45.351Z,12.47
2018-02-24T17:14:13.896Z,11.80
2018-02-24T17:16:42.373Z,12.90
2018-02-24T17:19:10.670Z,10.17
2018-02-24T17:21:38.970Z,12.03
2018-02-24T17:24:07.269Z,9.77
2018-02-24T17:26:35.558Z,10.97
2018-02-24T17:29:03.865Z,9.77
2018-02-24T17:31:32.179Z,10.20
2018-02-24T17:34:00.499Z,10.97
2018-02-24T17:36:28.827Z,10.03
2018-02-24T17:38:56.956Z,11.37
2018-02-24T17:41:26.951Z,9.93
2018-02-24T17:43:55.246Z,11.43
2018-02-24T17:46:23.792Z,11.57
2018-02-24T17:48:52.113Z,11.13
2018-02-24T17:51:20.407Z,10.00
2018-02-24T17:53:48.713Z,10.83
2018-02-24T17:56:17.018Z,10.90
2018-02-24T17:59:07.495Z,11.00
2018-02-24T18:01:35.834Z,11.00
2018-02-24T18:04:03.738Z,11.20
2018-02-24T18:06:32.078Z,10.77
2018-02-24T18:09:00.148Z,10.17
2018-02-24T18:11:28.467Z,9.57
2018-02-24T18:13:56.779Z,11.00
2018-02-24T18:16:25.890Z,10.43
2018-02-24T18:18:56.240Z,9.67
2018-02-24T18:21:24.775Z,11.00
2018-02-24T18:23:53.272Z,12.50
2018-02-24T18:26:21.581Z,10.23
2018-02-24T18:28:49.891Z,10.07
2018-02-24T18:31:18.190Z,9.67
2018-02-24T18:33:46.470Z,10.13
2018-02-24T18:36:14.775Z,10.47
2018-02-24T18:38:43.078Z,10.83
2018-02-24T18:41:11.378Z,9.40
2018-02-24T18:43:40.294Z,10.93
2018-02-24T18:46:08.407Z,10.13
2018-02-24T18:48:36.494Z,9.27
2018-02-24T18:51:04.783Z,8.77
2018-02-24T18:53:33.081Z,9.73
2018-02-24T18:56:01.565Z,10.07
2018-02-24T18:58:29.881Z,9.90
2018-02-24T19:00:58.166Z,9.37
2018-02-24T19:03:26.443Z,10.23
2018-02-24T19:05:54.806Z,10.07
2018-02-24T19:08:23.056Z,10.90
2018-02-24T19:10:51.367Z,9.83
2018-02-24T19:13:19.650Z,13.93
2018-02-24T19:15:47.942Z,9.83
2018-02-24T19:18:16.266Z,10.27
2018-02-24T19:20:44.358Z,9.47
2018-02-24T19:23:12.643Z,16.37
2018-02-24T19:25:40.725Z,10.40
2018-02-24T19:28:09.021Z,10.47
2018-02-24T19:30:37.168Z,8.93
2018-02-24T19:33:05.438Z,9.60
2018-02-24T19:35:33.710Z,8.93
2018-02-24T19:38:02.007Z,10.10
2018-02-24T19:40:30.291Z,11.03
2018-02-24T19:42:58.604Z,9.90
2018-02-24T19:45:26.918Z,10.33
2018-02-24T19:47:55.252Z,11.57
2018-02-24T19:50:23.534Z,12.43
2018-02-24T19:52:51.954Z,10.77
2018-02-24T19:55:20.437Z,11.70
2018-02-24T19:57:48.836Z,18.30
2018-02-24T20:00:17.259Z,11.37
2018-02-24T20:02:45.804Z,12.67
2018-02-24T20:05:14.234Z,13.37
2018-02-24T20:07:42.932Z,11.97
2018-02-24T20:10:11.229Z,13.17
2018-02-24T20:12:41.097Z,14.93
2018-02-24T20:15:09.401Z,10.93
2018-02-24T20:17:37.698Z,13.43
2018-02-24T20:20:06.003Z,13.40
2018-02-24T20:22:34.287Z,10.53
2018-02-24T20:25:02.590Z,14.40
2018-02-24T20:27:30.907Z,12.03
2018-02-24T20:29:59.196Z,10.47
2018-02-24T20:32:27.497Z,10.37
2018-02-24T20:34:55.846Z,12.77
2018-02-24T20:37:24.159Z,12.40
2018-02-24T20:39:52.578Z,10.20
2018-02-24T20:42:21.196Z,10.67
2018-02-24T20:44:49.567Z,11.07
2018-02-24T20:47:17.860Z,13.47
2018-02-24T20:49:46.175Z,10.33
2018-02-24T20:52:14.271Z,9.40
2018-02-24T20:54:42.410Z,10.70
2018-02-24T20:57:10.723Z,10.50
2018-02-24T20:59:39.007Z,11.17
2018-02-24T21:02:07.302Z,11.63
2018-02-24T21:04:35.585Z,10.33
2018-02-24T21:07:03.721Z,8.53
2018-02-24T21:09:32.017Z,9.70
2018-02-24T21:12:00.321Z,10.80
2018-02-24T21:14:28.641Z,11.53
2018-02-24T21:16:56.939Z,8.90
2018-02-24T21:19:25.234Z,9.00
2018-02-24T21:21:53.551Z,10.37
2018-02-24T21:24:22.006Z,8.77
2018-02-24T21:26:50.306Z,9.97
2018-02-24T21:29:18.581Z,9.87
2018-02-24T21:31:46.861Z,8.67
2018-02-24T21:34:15.149Z,9.40
2018-02-24T21:36:43.454Z,9.97
2018-02-24T21:39:11.734Z,11.40
2018-02-24T21:41:40.061Z,13.13
2018-02-24T21:44:08.413Z,10.20
2018-02-24T21:46:36.705Z,9.33
2018-02-24T21:49:05.010Z,10.47
2018-02-24T21:51:33.300Z,8.87
2018-02-24T21:54:01.591Z,8.83
2018-02-24T21:56:29.726Z,8.87
2018-02-24T21:58:58.018Z,9.20
2018-02-24T22:01:26.333Z,8.87
2018-02-24T22:03:54.638Z,8.30
2018-02-24T22:06:22.940Z,9.00
2018-02-24T22:08:51.230Z,9.50
2018-02-24T22:11:19.527Z,9.17
2018-02-24T22:13:47.844Z,8.50
2018-02-24T22:16:16.993Z,8.57
2018-02-24T22:18:45.304Z,10.07
2018-02-24T22:21:13.596Z,9.53
2018-02-24T22:23:41.879Z,9.07
2018-02-24T22:26:10.199Z,8.80
2018-02-24T22:28:38.502Z,7.77
2018-02-24T22:31:06.598Z,7.97
2018-02-24T22:33:34.891Z,7.53
2018-02-24T22:36:03.198Z,9.77
2018-02-24T22:38:31.512Z,7.77
2018-02-24T22:40:59.833Z,11.50
2018-02-24T22:43:28.125Z,8.70
2018-02-24T22:45:56.424Z,8.73
2018-02-24T22:48:30.202Z,8.43
2018-02-24T22:50:58.511Z,10.33
2018-02-24T22:53:26.794Z,7.80
2018-02-24T22:55:55.084Z,11.20
2018-02-24T22:58:23.805Z,7.93
2018-02-24T23:00:52.100Z,10.03
2018-02-24T23:03:20.391Z,8.17
2018-02-24T23:05:48.784Z,9.10
2018-02-24T23:08:17.077Z,9.97
2018-02-24T23:10:45.363Z,8.60
2018-02-24T23:13:13.644Z,8.03
2018-02-24T23:15:41.922Z,7.80
2018-02-24T23:18:10.206Z,9.67
2018-02-24T23:20:38.490Z,7.63
2018-02-24T23:23:06.766Z,7.83
2018-02-24T23:25:35.062Z,8.07
2018-02-24T23:28:03.351Z,8.03
2018-02-24T23:30:31.634Z,12.13
2018-02-24T23:32:59.931Z,7.90
2018-02-24T23:35:28.230Z,9.50
2018-02-24T23:37:56.538Z,8.63
2018-02-24T23:40:24.639Z,8.27
2018-02-24T23:42:52.919Z,9.27
2018-02-24T23:45:21.205Z,7.47
2018-02-24T23:47:49.325Z,9.33
2018-02-24T23:50:17.445Z,10.83
2018-02-24T23:52:45.550Z,9.90
2018-02-24T23:55:13.665Z,11.77
2018-02-24T23:57:41.966Z,8.70
